Airfield :
LOGIN :

Register | Disclaimer

   EN    FR    IT 

 










Legend :    VFR   Marginal VFR   IFR   Intensive IFR   Very Intensive IFR
Visi :
Ceiling :
>= 8 km
>= 3000ft
5 to 8 km
1000 to 3000 ft
1500m to 5 km
500 to 1000 ft
800 to 1500m
200 to 500 ft
< 800m
< 200 ft
Symbols :   Thunderstorms  Fog  Heavy snow  Heavy precipitations  Wind > 20 kt
SIGMETs :     Misc.  Thunderstorms  Icing  Turbulence  Mountain Waves  Volcanic Ashes






- Airport Elevation : 436 ft
- IATA code : BTS


LZIB - Bratislava

CURRENT METAR :
  • 261400Z 16003KT 100V230 9999 FEW045 24/14 Q1019 NOSIG

EXPIRED METARs :
  • 261330Z 14003KT 100V190 9999 FEW046 23/14 Q1019 NOSIG
  • 261300Z 16006KT 9999 FEW048 24/13 Q1019 NOSIG
  • 261230Z 15007KT 9999 FEW048 24/12 Q1019 NOSIG
  • 261200Z 13004KT 030V190 9999 FEW045 23/13 Q1019 NOSIG
  • 261130Z VRB02KT 9999 FEW044 23/13 Q1019 NOSIG
  • 261100Z 14005KT 9999 FEW042 23/13 Q1019 NOSIG
  • 261030Z 12007KT 080V160 9999 FEW042 23/14 Q1019 NOSIG
  • 261000Z 11004KT 060V160 CAVOK 23/13 Q1019 NOSIG
  • 260930Z 07004KT 030V120 CAVOK 21/14 Q1019 NOSIG

TAF TAF LZIB
Valid from the 26 at 12:00 until the 27 at 12:00 UTC


261115Z 2612/2712 09004KT 9999 FEW045
PROB40
TEMPO 2613/2620 12014KT TSRA SCT040CB
BECMG 2710/2712 16010KT



MET'MAP, your aeronautical weather chart ! - Copyright ORBIFLY December 2007 - Disclaimer

ORBIFLY MET'MAP TEAM :

Programming & Development : Alexandra Zaïnal
Original concept : Baudouin d'Aumeries
Technical & hardware support : Manuel Goepfert
Assistance : Marc-Olivier Méhu




SOURCES & CREDITS :

   NOAA